createdAt,value
2018-11-28T00:00:04.460Z,98444.76
2018-11-28T00:00:36.131Z,98449.89
2018-11-28T00:01:12.202Z,98432.97
2018-11-28T00:01:44.485Z,98447.87
2018-11-28T00:02:15.738Z,98439.27
2018-11-28T00:02:48.720Z,98442.41
2018-11-28T00:03:20.632Z,98437.05
2018-11-28T00:09:02.746Z,98458.07
2018-11-28T00:09:33.902Z,98454.63
2018-11-28T00:10:05.033Z,98459.45
2018-11-28T00:10:36.145Z,98468.55
2018-11-28T00:11:08.629Z,98461.00
2018-11-28T00:11:42.261Z,98461.14
2018-11-28T00:12:13.479Z,98458.14
2018-11-28T00:12:45.061Z,98459.55
2018-11-28T00:13:16.366Z,98464.65
2018-11-28T00:13:47.635Z,98454.23
2018-11-28T00:14:18.894Z,98456.05
2018-11-28T00:14:50.122Z,98458.97
2018-11-28T00:15:21.455Z,98461.14
2018-11-28T00:15:53.051Z,98459.05
2018-11-28T00:16:24.246Z,98455.58
2018-11-28T00:16:55.582Z,98466.78
2018-11-28T00:17:26.782Z,98463.20
2018-11-28T00:17:57.967Z,98468.22
2018-11-28T00:18:31.523Z,98472.16
2018-11-28T00:19:02.723Z,98483.77
2018-11-28T00:19:34.028Z,98481.02
2018-11-28T00:20:05.231Z,98477.13
2018-11-28T00:20:36.396Z,98467.03
2018-11-28T00:21:08.173Z,98487.82
2018-11-28T00:21:39.367Z,98471.41
2018-11-28T00:22:10.571Z,98476.69
2018-11-28T00:22:41.800Z,98479.36
2018-11-28T00:23:13.005Z,98488.83
2018-11-28T00:23:44.191Z,98484.16
2018-11-28T00:24:15.381Z,98485.00
2018-11-28T00:24:48.421Z,98490.02
2018-11-28T00:25:19.621Z,98494.83
2018-11-28T00:25:50.745Z,98487.42
2018-11-28T00:26:21.862Z,98495.62
2018-11-28T00:26:53.025Z,98488.71
2018-11-28T00:27:24.148Z,98493.78
2018-11-28T00:27:55.410Z,98489.22
2018-11-28T00:28:26.747Z,98494.92
2018-11-28T00:28:57.932Z,98496.62
2018-11-28T00:29:29.162Z,98492.55
2018-11-28T00:30:00.381Z,98483.94
2018-11-28T00:30:31.602Z,98501.43
2018-11-28T00:31:02.850Z,98484.33
2018-11-28T00:31:34.011Z,98496.77
2018-11-28T00:32:05.162Z,98486.20
2018-11-28T00:32:36.454Z,98500.91
2018-11-28T00:33:07.570Z,98484.58
2018-11-28T00:33:38.734Z,98493.28
2018-11-28T00:34:09.861Z,98494.58
2018-11-28T00:34:41.768Z,98499.72
2018-11-28T00:35:12.907Z,98500.62
2018-11-28T00:35:44.028Z,98494.11
2018-11-28T00:36:15.144Z,98503.62
2018-11-28T00:36:46.254Z,98505.00
2018-11-28T00:37:17.374Z,98500.27
2018-11-28T00:37:48.493Z,98510.20
2018-11-28T00:38:19.604Z,98488.73
2018-11-28T00:38:50.748Z,98484.44
2018-11-28T00:39:21.893Z,98492.64
2018-11-28T00:39:53.003Z,98488.41
2018-11-28T00:40:24.126Z,98484.37
2018-11-28T00:40:55.265Z,98479.23
2018-11-28T00:41:26.431Z,98490.34
2018-11-28T00:41:57.565Z,98472.24
2018-11-28T00:42:28.690Z,98482.48
2018-11-28T00:42:59.823Z,98497.65
2018-11-28T00:43:30.949Z,98495.81
2018-11-28T00:44:02.098Z,98497.52
2018-11-28T00:44:33.219Z,98487.58
2018-11-28T00:45:04.355Z,98500.11
2018-11-28T00:45:35.518Z,98496.05
2018-11-28T00:46:06.643Z,98503.86
2018-11-28T00:46:37.770Z,98490.56
2018-11-28T00:47:08.889Z,98478.53
2018-11-28T00:47:39.988Z,98487.80
2018-11-28T00:48:11.149Z,98480.44
2018-11-28T00:48:42.252Z,98498.64
2018-11-28T00:49:13.357Z,98496.91
2018-11-28T00:49:44.456Z,98489.20
2018-11-28T00:50:15.594Z,98480.50
2018-11-28T00:50:46.729Z,98483.17
2018-11-28T00:51:17.844Z,98492.78
2018-11-28T00:51:48.953Z,98487.17
2018-11-28T00:52:20.063Z,98484.64
2018-11-28T00:52:51.209Z,98492.05
2018-11-28T00:53:22.375Z,98499.81
2018-11-28T00:53:53.480Z,98500.14
2018-11-28T00:54:24.584Z,98500.58
2018-11-28T00:54:55.691Z,98496.11
2018-11-28T00:55:26.794Z,98493.41
2018-11-28T00:55:57.902Z,98500.81
2018-11-28T00:56:29.016Z,98499.11
2018-11-28T00:57:00.152Z,98510.31
2018-11-28T00:57:31.263Z,98509.34
2018-11-28T00:58:02.421Z,98502.27
2018-11-28T00:58:33.539Z,98500.11
2018-11-28T00:59:04.640Z,98500.03
2018-11-28T00:59:35.755Z,98495.30
2018-11-28T01:00:06.901Z,98487.34
2018-11-28T01:00:38.894Z,98488.70
2018-11-28T01:01:10.297Z,98493.91
2018-11-28T01:01:41.456Z,98506.51
2018-11-28T01:02:12.586Z,98497.41
2018-11-28T01:02:45.505Z,98498.51
2018-11-28T01:03:17.640Z,98477.71
2018-11-28T01:03:48.978Z,98487.14
2018-11-28T01:04:20.159Z,98491.52
2018-11-28T01:04:51.284Z,98490.28
2018-11-28T01:05:22.414Z,98497.73
2018-11-28T01:05:54.239Z,98485.74
2018-11-28T01:06:25.428Z,98478.24
2018-11-28T01:06:56.790Z,98488.02
2018-11-28T01:07:28.837Z,98483.08
2018-11-28T01:08:00.015Z,98486.98
2018-11-28T01:08:31.222Z,98472.91
2018-11-28T01:09:02.375Z,98478.68
2018-11-28T01:09:33.574Z,98485.34
2018-11-28T01:10:04.821Z,98478.81
2018-11-28T01:10:36.021Z,98480.55
2018-11-28T01:11:07.185Z,98473.55
2018-11-28T01:11:38.376Z,98449.16
2018-11-28T01:12:09.555Z,98478.70
2018-11-28T01:12:40.723Z,98493.83
2018-11-28T01:13:11.856Z,98467.05
2018-11-28T01:13:43.601Z,98482.30
2018-11-28T01:14:15.608Z,98499.76
2018-11-28T01:14:46.793Z,98490.73
2018-11-28T01:15:18.013Z,98503.61
2018-11-28T01:15:49.155Z,98490.95
2018-11-28T01:16:20.266Z,98493.71
2018-11-28T01:16:51.397Z,98504.56
2018-11-28T01:17:22.852Z,98509.27
2018-11-28T01:17:53.991Z,98502.98
2018-11-28T01:18:25.157Z,98505.36
2018-11-28T01:18:56.851Z,98512.19
2018-11-28T01:19:28.009Z,98507.62
2018-11-28T01:19:59.117Z,98508.86
2018-11-28T01:20:30.236Z,98511.42
2018-11-28T01:21:01.945Z,98497.75
2018-11-28T01:21:33.155Z,98497.98
2018-11-28T01:22:04.306Z,98490.74
2018-11-28T01:22:35.502Z,98502.87
2018-11-28T01:23:06.661Z,98502.80
2018-11-28T01:23:37.892Z,98500.95
2018-11-28T01:24:09.613Z,98504.48
2018-11-28T01:24:40.801Z,98503.05
2018-11-28T01:25:12.038Z,98502.24
2018-11-28T01:25:43.241Z,98503.52
2018-11-28T01:26:14.475Z,98494.45
2018-11-28T01:26:45.633Z,98500.80
2018-11-28T01:27:16.733Z,98505.28
2018-11-28T01:27:47.849Z,98502.81
2018-11-28T01:28:18.980Z,98508.91
2018-11-28T01:28:50.122Z,98505.28
2018-11-28T01:29:21.241Z,98490.63
2018-11-28T01:29:52.357Z,98496.50
2018-11-28T01:30:23.487Z,98504.56
2018-11-28T01:30:55.975Z,98508.47
2018-11-28T01:31:27.357Z,98514.50
2018-11-28T01:31:58.487Z,98503.40
2018-11-28T01:32:29.644Z,98502.87
2018-11-28T01:33:00.814Z,98503.40
2018-11-28T01:33:31.991Z,98512.36
2018-11-28T01:34:03.193Z,98498.81
2018-11-28T01:34:34.409Z,98506.61
2018-11-28T01:35:05.582Z,98504.84
2018-11-28T01:35:36.708Z,98500.05
2018-11-28T01:36:07.905Z,98504.01
2018-11-28T01:36:39.754Z,98509.27
2018-11-28T01:37:10.945Z,98495.25
2018-11-28T01:37:42.175Z,98501.25
2018-11-28T01:38:13.460Z,98500.58
2018-11-28T01:38:44.665Z,98501.01
2018-11-28T01:39:15.906Z,98502.38
2018-11-28T01:39:47.054Z,98497.00
2018-11-28T01:40:18.224Z,98498.57
2018-11-28T01:40:50.054Z,98494.45
2018-11-28T01:41:22.299Z,98494.78
2018-11-28T01:41:53.512Z,98504.75
2018-11-28T01:42:24.652Z,98509.94
2018-11-28T01:42:55.802Z,98502.83
2018-11-28T01:43:27.095Z,98513.09
2018-11-28T01:44:00.236Z,98504.59
2018-11-28T01:44:31.557Z,98512.41
2018-11-28T01:45:02.865Z,98511.45
2018-11-28T01:45:34.006Z,98516.62
2018-11-28T01:46:05.583Z,98506.09
2018-11-28T01:46:36.781Z,98507.28
2018-11-28T01:47:07.888Z,98510.01
2018-11-28T01:47:38.994Z,98507.34
2018-11-28T01:48:10.102Z,98500.45
2018-11-28T01:48:41.247Z,98502.64
2018-11-28T01:49:13.457Z,98495.81
2018-11-28T01:49:44.716Z,98480.56
2018-11-28T01:50:15.892Z,98499.87
2018-11-28T01:50:47.042Z,98483.91
2018-11-28T01:51:18.203Z,98488.64
2018-11-28T01:51:49.347Z,98493.97
2018-11-28T01:52:57.998Z,98485.30
2018-11-28T01:53:29.178Z,98490.56
2018-11-28T01:54:00.285Z,98481.14
2018-11-28T01:54:31.420Z,98492.42
2018-11-28T01:55:02.540Z,98484.75
2018-11-28T01:55:33.655Z,98494.98
2018-11-28T01:56:04.784Z,98499.77
2018-11-28T01:56:37.042Z,98495.47
2018-11-28T01:57:08.155Z,98492.81
2018-11-28T01:57:39.311Z,98485.89
2018-11-28T01:58:10.461Z,98495.94
2018-11-28T01:58:42.148Z,98493.78
2018-11-28T01:59:13.350Z,98495.27
2018-11-28T01:59:44.961Z,98484.01
2018-11-28T02:00:16.203Z,98511.28
2018-11-28T02:00:47.405Z,98487.34
2018-11-28T02:01:18.576Z,98506.89
2018-11-28T02:01:49.702Z,98473.55
2018-11-28T02:02:20.836Z,98510.45
2018-11-28T02:02:51.961Z,98487.10
2018-11-28T02:03:23.060Z,98509.71
2018-11-28T02:03:54.177Z,98498.30
2018-11-28T02:04:25.272Z,98492.30
2018-11-28T02:04:56.376Z,98498.86
2018-11-28T02:05:27.475Z,98468.77
2018-11-28T02:05:58.579Z,98498.64
2018-11-28T02:06:29.712Z,98502.41
2018-11-28T02:07:00.805Z,98490.72
2018-11-28T02:07:31.942Z,98492.92
2018-11-28T02:08:03.081Z,98488.47
2018-11-28T02:08:34.182Z,98479.25
2018-11-28T02:09:05.291Z,98483.16
2018-11-28T02:09:36.391Z,98499.63
2018-11-28T02:10:07.511Z,98504.48
2018-11-28T02:10:38.628Z,98495.00
2018-11-28T02:11:09.732Z,98488.50
2018-11-28T02:11:40.872Z,98487.67
2018-11-28T02:12:11.977Z,98490.20
2018-11-28T02:12:43.093Z,98496.60
2018-11-28T02:13:14.187Z,98479.09
2018-11-28T02:13:45.289Z,98479.38
2018-11-28T02:14:16.391Z,98496.36
2018-11-28T02:14:47.500Z,98495.06
2018-11-28T02:15:18.591Z,98507.64
2018-11-28T02:15:51.846Z,98491.69
2018-11-28T02:16:23.013Z,98497.59
2018-11-28T02:16:54.164Z,98352.27
2018-11-28T02:17:25.345Z,98517.94
2018-11-28T02:17:56.486Z,98516.02
2018-11-28T02:18:27.617Z,98529.91
2018-11-28T02:18:58.761Z,98511.66
2018-11-28T02:19:29.976Z,98543.02
2018-11-28T02:20:01.353Z,98532.95
2018-11-28T02:20:32.983Z,98540.38
2018-11-28T02:21:04.894Z,98543.48
2018-11-28T02:21:36.083Z,98545.52
2018-11-28T02:22:10.457Z,98553.50
2018-11-28T02:22:41.715Z,98542.05
2018-11-28T02:23:13.543Z,98554.64
2018-11-28T02:23:44.917Z,98529.86
2018-11-28T02:24:16.955Z,98576.70
2018-11-28T02:24:48.267Z,98567.16
2018-11-28T02:25:22.546Z,98572.77
2018-11-28T02:25:55.413Z,98582.36
2018-11-28T02:26:26.735Z,98581.13
2018-11-28T02:26:58.141Z,98585.91
2018-11-28T02:27:29.481Z,98581.95
2018-11-28T02:28:05.158Z,98592.14
2018-11-28T02:28:40.240Z,98595.75
2018-11-28T02:29:13.333Z,98596.80
2018-11-28T02:29:44.847Z,98607.81
2018-11-28T02:30:16.586Z,98603.23
2018-11-28T02:30:48.490Z,98609.92
2018-11-28T02:31:20.442Z,98609.98
2018-11-28T02:31:51.757Z,98607.51
2018-11-28T02:32:23.088Z,98622.73
2018-11-28T02:32:56.180Z,98628.89
2018-11-28T02:33:28.184Z,98622.29
2018-11-28T02:34:00.238Z,98629.75
2018-11-28T02:34:33.662Z,98629.41
2018-11-28T02:35:04.919Z,98634.70
2018-11-28T02:35:38.316Z,98640.31
2018-11-28T02:36:10.478Z,98651.14
2018-11-28T02:36:41.822Z,98650.12
2018-11-28T02:37:13.129Z,98650.61
2018-11-28T02:37:45.504Z,98654.48
2018-11-28T02:38:16.871Z,98658.20
2018-11-28T02:38:49.136Z,98653.74
2018-11-28T02:39:20.421Z,98646.97
2018-11-28T02:39:53.295Z,98642.72
2018-11-28T02:40:24.887Z,98636.28
2018-11-28T02:40:56.186Z,98630.25
2018-11-28T02:41:29.423Z,98633.16
2018-11-28T02:42:00.692Z,98622.02
2018-11-28T02:42:31.946Z,98608.16
2018-11-28T02:43:03.834Z,98611.72
2018-11-28T02:43:35.138Z,98615.63
2018-11-28T02:44:06.996Z,98598.41
2018-11-28T02:44:38.270Z,98603.86
2018-11-28T02:45:09.478Z,98607.92
2018-11-28T02:45:42.725Z,98604.84
2018-11-28T02:46:14.137Z,98617.33
2018-11-28T02:46:48.549Z,98608.04
2018-11-28T02:47:19.762Z,98606.34
2018-11-28T02:48:27.269Z,98595.12
2018-11-28T02:48:59.499Z,98609.53
2018-11-28T02:49:31.262Z,98591.08
2018-11-28T02:50:02.737Z,98597.91
2018-11-28T02:50:33.880Z,98602.36
2018-11-28T02:51:05.048Z,98599.44
2018-11-28T02:51:36.198Z,98596.47
2018-11-28T02:52:08.166Z,98596.47
2018-11-28T02:52:39.430Z,98590.55
2018-11-28T02:53:10.802Z,98601.99
2018-11-28T02:53:42.869Z,98592.16
2018-11-28T02:54:15.091Z,98593.86
2018-11-28T02:54:46.383Z,98591.27
2018-11-28T02:55:19.394Z,98575.70
2018-11-28T02:55:51.821Z,98596.05
2018-11-28T02:57:05.260Z,98599.84
2018-11-28T02:59:34.471Z,98600.59
2018-11-28T03:15:20.179Z,98587.61
2018-11-28T03:15:53.280Z,98573.36
2018-11-28T03:16:26.290Z,98544.42
2018-11-28T03:16:58.090Z,98583.83
2018-11-28T03:17:30.267Z,98578.23
2018-11-28T03:18:04.542Z,98570.05
2018-11-28T03:18:35.965Z,98561.22
2018-11-28T03:19:13.633Z,98581.13
2018-11-28T03:19:45.757Z,98600.39
2018-11-28T03:20:17.840Z,98592.84
2018-11-28T03:20:49.175Z,98582.84
2018-11-28T03:21:20.694Z,98573.59
2018-11-28T03:21:52.188Z,98584.66
2018-11-28T03:22:23.407Z,98591.78
2018-11-28T03:22:55.851Z,98591.08
2018-11-28T03:23:27.103Z,98595.86
2018-11-28T03:23:59.525Z,98589.30
2018-11-28T03:24:32.584Z,98591.13
2018-11-28T03:25:05.669Z,98606.34
2018-11-28T03:25:44.021Z,98596.55
2018-11-28T03:26:15.431Z,98594.13
2018-11-28T03:26:51.293Z,98592.78
2018-11-28T03:28:39.552Z,98615.81
2018-11-28T03:29:10.808Z,98606.74
2018-11-28T03:29:43.270Z,98603.61
2018-11-28T03:30:15.024Z,98596.59
2018-11-28T03:30:47.221Z,98608.16
2018-11-28T03:31:19.206Z,98597.73
2018-11-28T03:31:53.767Z,98610.52
2018-11-28T03:32:28.603Z,98614.69
2018-11-28T03:33:00.164Z,98607.15
2018-11-28T03:33:36.205Z,98622.70
2018-11-28T03:34:13.427Z,98621.71
2018-11-28T03:34:48.853Z,98619.02
2018-11-28T03:35:24.145Z,98626.19
2018-11-28T03:35:55.722Z,98624.25
2018-11-28T03:36:28.151Z,98621.71
2018-11-28T03:37:00.223Z,98621.30
2018-11-28T03:37:33.100Z,98627.89
2018-11-28T03:38:05.466Z,98628.27
2018-11-28T03:38:36.787Z,98630.31
2018-11-28T03:39:09.635Z,98636.50
2018-11-28T03:39:41.594Z,98624.58
2018-11-28T03:40:15.237Z,98622.72
2018-11-28T03:40:47.382Z,98624.13
2018-11-28T03:41:20.399Z,98633.72
2018-11-28T03:41:52.171Z,98638.31
2018-11-28T03:42:24.610Z,98627.11
2018-11-28T03:42:56.544Z,98624.70
2018-11-28T03:43:27.824Z,98637.67
2018-11-28T03:43:59.749Z,98629.68
2018-11-28T03:44:31.600Z,98630.78
2018-11-28T03:45:03.679Z,98641.35
2018-11-28T03:45:36.644Z,98643.78
2018-11-28T03:46:08.083Z,98637.84
2018-11-28T03:46:40.393Z,98641.80
2018-11-28T03:50:04.594Z,98658.24
2018-11-28T03:54:20.612Z,98641.21
2018-11-28T03:54:51.887Z,98648.63
2018-11-28T03:55:23.161Z,98665.86
2018-11-28T03:55:58.302Z,98674.56
2018-11-28T03:56:30.569Z,98667.75
2018-11-28T03:57:03.287Z,98676.39
2018-11-28T03:57:34.544Z,98673.03
2018-11-28T03:58:06.579Z,98667.31
2018-11-28T03:58:39.626Z,98674.77
2018-11-28T03:59:11.626Z,98677.46
2018-11-28T03:59:42.833Z,98678.83
2018-11-28T04:00:14.060Z,98674.73
2018-11-28T04:00:45.310Z,98689.42
2018-11-28T04:01:16.514Z,98689.41
2018-11-28T04:01:48.639Z,98692.00
2018-11-28T04:02:20.417Z,98693.77
2018-11-28T04:02:51.696Z,98691.76
2018-11-28T04:03:24.345Z,98690.05
2018-11-28T04:03:55.673Z,98700.02
2018-11-28T04:04:28.634Z,98699.84
2018-11-28T04:05:00.609Z,98704.98
2018-11-28T04:05:31.807Z,98709.20
2018-11-28T04:06:03.400Z,98702.37
2018-11-28T04:06:34.685Z,98706.49
2018-11-28T04:07:06.914Z,98713.74
2018-11-28T04:07:39.646Z,98716.52
2018-11-28T04:08:11.566Z,98703.08
2018-11-28T04:08:45.968Z,98722.53
2018-11-28T04:09:18.813Z,98716.11
2018-11-28T04:10:28.366Z,98716.45
2018-11-28T04:11:00.245Z,98715.66
2018-11-28T04:11:31.805Z,98713.80
2018-11-28T04:12:05.261Z,98724.71
2018-11-28T04:12:36.656Z,98722.06
2018-11-28T04:13:08.089Z,98723.67
2018-11-28T04:13:40.233Z,98727.98
2018-11-28T04:14:11.647Z,98536.39
2018-11-28T04:14:43.785Z,98719.97
2018-11-28T04:15:15.163Z,98732.09
2018-11-28T04:15:46.386Z,98727.58
2018-11-28T04:16:18.267Z,98720.84
2018-11-28T04:16:49.611Z,98729.69
2018-11-28T04:17:21.834Z,98730.32
2018-11-28T04:17:53.759Z,98742.02
2018-11-28T04:18:25.410Z,98626.42
2018-11-28T04:18:56.671Z,98736.65
2018-11-28T04:19:27.819Z,98738.23
2018-11-28T04:19:58.954Z,98742.07
2018-11-28T04:20:30.091Z,98740.88
2018-11-28T04:26:01.044Z,98746.23
2018-11-28T04:26:32.269Z,98746.75
2018-11-28T04:27:04.429Z,98744.52
2018-11-28T04:27:35.783Z,98744.41
2018-11-28T04:32:54.772Z,98751.56
2018-11-28T04:33:25.938Z,98755.09
2018-11-28T04:33:57.697Z,98758.71
2018-11-28T04:34:28.871Z,98765.96
2018-11-28T04:35:00.039Z,98765.75
2018-11-28T04:35:31.941Z,98595.00
2018-11-28T04:36:03.072Z,98762.96
2018-11-28T04:36:34.320Z,98764.16
2018-11-28T04:37:06.535Z,98769.67
2018-11-28T04:37:38.791Z,98749.03
2018-11-28T04:38:10.021Z,98749.20
2018-11-28T04:38:41.587Z,98768.88
2018-11-28T04:39:14.095Z,98759.08
2018-11-28T04:39:46.720Z,98760.47
2018-11-28T04:40:21.339Z,98761.66
2018-11-28T04:40:52.646Z,98742.70
2018-11-28T04:41:24.543Z,98767.11
2018-11-28T04:41:57.228Z,98762.91
2018-11-28T04:42:32.288Z,98757.32
2018-11-28T04:43:05.258Z,98738.98
2018-11-28T04:43:37.130Z,98764.57
2018-11-28T04:44:09.079Z,98768.24
2018-11-28T04:44:42.110Z,98773.84
2018-11-28T04:45:13.648Z,98766.85
2018-11-28T04:45:45.319Z,98770.84
2018-11-28T04:46:20.177Z,98771.88
2018-11-28T04:51:39.803Z,98770.77
2018-11-28T04:52:12.854Z,98750.20
2018-11-28T04:52:44.140Z,98776.23
2018-11-28T04:53:16.186Z,98777.20
2018-11-28T04:53:47.964Z,98778.41
2018-11-28T04:54:21.386Z,98771.38
2018-11-28T04:54:56.405Z,98782.47
2018-11-28T04:55:28.597Z,98775.94
2018-11-28T04:56:00.622Z,98752.80
2018-11-28T04:56:32.548Z,98775.28
2018-11-28T04:57:04.538Z,98780.00
2018-11-28T04:57:35.778Z,98775.34
2018-11-28T04:58:07.063Z,98782.45
2018-11-28T04:58:41.742Z,98786.33
2018-11-28T04:59:13.079Z,98783.11
2018-11-28T04:59:45.206Z,98782.38
2018-11-28T05:00:19.009Z,98770.57
2018-11-28T05:00:51.013Z,98774.45
2018-11-28T05:01:24.440Z,98779.28
2018-11-28T05:01:55.832Z,98773.42
2018-11-28T05:02:27.309Z,98755.85
2018-11-28T05:02:59.520Z,98773.99
2018-11-28T05:03:31.783Z,98784.62
2018-11-28T05:04:04.626Z,98779.42
2018-11-28T05:04:39.461Z,98783.17
2018-11-28T05:05:10.993Z,98778.41
2018-11-28T05:05:42.562Z,98779.64
2018-11-28T05:06:14.697Z,98774.52
2018-11-28T05:06:48.752Z,98784.88
2018-11-28T05:07:24.561Z,98782.70
2018-11-28T05:07:55.866Z,98783.11
2018-11-28T05:08:27.127Z,98784.64
2018-11-28T05:08:58.505Z,98786.84
2018-11-28T05:09:29.874Z,98765.92
2018-11-28T05:10:04.090Z,98767.31
2018-11-28T05:10:36.396Z,98771.91
2018-11-28T05:11:08.550Z,98784.45
2018-11-28T05:11:43.425Z,98781.61
2018-11-28T05:12:14.714Z,98789.37
2018-11-28T05:12:47.016Z,98772.34
2018-11-28T05:13:18.896Z,98792.76
2018-11-28T05:13:50.165Z,98773.70
2018-11-28T05:14:23.531Z,98789.74
2018-11-28T05:14:55.769Z,98792.18
2018-11-28T05:15:27.056Z,98786.50
2018-11-28T05:15:58.320Z,98794.77
2018-11-28T05:16:31.270Z,98776.08
2018-11-28T05:17:04.207Z,98788.36
2018-11-28T05:17:35.559Z,98791.03
2018-11-28T05:18:07.970Z,98792.33
2018-11-28T05:18:40.679Z,98805.34
2018-11-28T05:19:11.995Z,98798.16
2018-11-28T05:19:45.430Z,98799.23
2018-11-28T05:20:18.496Z,98793.17
2018-11-28T05:20:54.685Z,98789.55
2018-11-28T05:21:26.275Z,98803.53
2018-11-28T05:21:58.358Z,98806.60
2018-11-28T05:22:29.744Z,98806.34
2018-11-28T05:23:01.442Z,98818.05
2018-11-28T05:23:32.732Z,98790.00
2018-11-28T05:24:08.975Z,98802.95
2018-11-28T05:24:40.964Z,98808.45
2018-11-28T05:25:12.814Z,98821.00
2018-11-28T05:25:47.176Z,98820.53
2018-11-28T05:26:19.498Z,98813.14
2018-11-28T05:26:52.708Z,98818.41
2018-11-28T05:27:23.957Z,98818.98
2018-11-28T05:27:55.111Z,98826.15
2018-11-28T05:28:27.359Z,98825.63
2018-11-28T05:29:37.919Z,98829.36
2018-11-28T05:30:09.899Z,98823.72
2018-11-28T05:30:47.861Z,98823.66
2018-11-28T05:32:00.009Z,98838.85
2018-11-28T05:32:33.647Z,98834.69
2018-11-28T05:33:41.987Z,98828.38
2018-11-28T05:34:14.550Z,98840.87
2018-11-28T05:34:46.323Z,98844.97
2018-11-28T05:35:18.035Z,98835.84
2018-11-28T05:35:51.558Z,98849.68
2018-11-28T05:36:23.478Z,98841.77
2018-11-28T05:36:56.426Z,98834.55
2018-11-28T05:37:29.561Z,98836.09
2018-11-28T05:38:02.742Z,98837.07
2018-11-28T05:38:38.394Z,98842.92
2018-11-28T05:39:10.295Z,98843.28
2018-11-28T05:39:41.811Z,98820.23
2018-11-28T05:40:14.671Z,98821.99
2018-11-28T05:40:46.650Z,98829.92
2018-11-28T05:41:20.055Z,98847.33
2018-11-28T05:41:51.724Z,98846.34
2018-11-28T05:53:44.299Z,98879.02
2018-11-28T05:54:15.412Z,98868.15
2018-11-28T05:54:46.528Z,98871.53
2018-11-28T05:55:17.633Z,98866.34
2018-11-28T05:55:48.742Z,98868.66
2018-11-28T05:56:19.831Z,98870.27
2018-11-28T05:56:50.944Z,98876.56
2018-11-28T05:57:22.075Z,98864.13
2018-11-28T05:57:53.188Z,98883.23
2018-11-28T05:58:24.494Z,98881.02
2018-11-28T05:58:55.623Z,98875.97
2018-11-28T05:59:27.544Z,98876.72
2018-11-28T05:59:57.868Z,98881.84
2018-11-28T06:00:28.988Z,98878.52
2018-11-28T06:01:00.096Z,98883.69
2018-11-28T06:01:31.205Z,98891.00
2018-11-28T06:02:02.318Z,98879.91
2018-11-28T06:02:33.431Z,98884.89
2018-11-28T06:03:04.694Z,98891.84
2018-11-28T06:03:35.865Z,98883.09
2018-11-28T06:04:06.987Z,98876.14
2018-11-28T06:04:38.109Z,98882.30
2018-11-28T06:05:09.236Z,98869.44
2018-11-28T06:05:40.356Z,98877.59
2018-11-28T06:06:11.758Z,98887.59
2018-11-28T06:06:42.886Z,98892.75
2018-11-28T06:07:14.061Z,98892.75
2018-11-28T06:07:45.165Z,98885.08
2018-11-28T06:08:16.308Z,98890.72
2018-11-28T06:08:47.414Z,98888.97
2018-11-28T06:09:18.532Z,98892.80
2018-11-28T06:09:49.633Z,98895.30
2018-11-28T06:10:20.753Z,98893.08
2018-11-28T06:10:51.858Z,98894.34
2018-11-28T06:11:22.976Z,98898.81
2018-11-28T06:11:54.080Z,98893.64
2018-11-28T06:12:25.183Z,98897.84
2018-11-28T06:12:56.335Z,98903.36
2018-11-28T06:13:27.496Z,98903.90
2018-11-28T06:13:59.688Z,98908.54
2018-11-28T06:14:30.800Z,98910.47
2018-11-28T06:15:01.908Z,98894.42
2018-11-28T06:15:33.021Z,98908.72
2018-11-28T06:16:05.191Z,98909.08
2018-11-28T06:16:36.367Z,98910.34
2018-11-28T06:17:07.500Z,98913.19
2018-11-28T06:17:38.605Z,98907.60
2018-11-28T06:18:09.762Z,98913.74
2018-11-28T06:18:40.925Z,98911.62
2018-11-28T06:19:12.033Z,98908.78
2018-11-28T06:19:43.145Z,98914.84
2018-11-28T06:20:14.264Z,98922.02
2018-11-28T06:20:45.714Z,98920.30
2018-11-28T06:21:16.848Z,98909.58
2018-11-28T06:21:47.950Z,98923.81
2018-11-28T06:22:19.062Z,98924.27
2018-11-28T06:22:50.173Z,98921.56
2018-11-28T06:23:21.392Z,98920.96
2018-11-28T06:23:52.905Z,98925.52
2018-11-28T06:24:24.932Z,98925.38
2018-11-28T06:24:56.036Z,98929.17
2018-11-28T06:25:27.150Z,98927.64
2018-11-28T06:25:58.352Z,98926.44
2018-11-28T06:26:29.470Z,98936.41
2018-11-28T06:27:00.605Z,98919.44
2018-11-28T06:27:31.711Z,98932.86
2018-11-28T06:28:02.827Z,98933.32
2018-11-28T06:28:33.994Z,98933.78
2018-11-28T06:29:05.101Z,98931.66
2018-11-28T06:29:36.209Z,98945.91
2018-11-28T06:30:07.324Z,98937.62
2018-11-28T06:30:38.442Z,98943.55
2018-11-28T06:31:09.554Z,98940.04
2018-11-28T06:31:40.705Z,98928.80
2018-11-28T06:32:11.805Z,98933.79
2018-11-28T06:32:42.930Z,98915.66
2018-11-28T06:33:14.053Z,98935.64
2018-11-28T06:33:45.250Z,98938.83
2018-11-28T06:34:18.739Z,98932.77
2018-11-28T06:34:49.913Z,98930.17
2018-11-28T06:35:21.017Z,98944.05
2018-11-28T06:35:52.256Z,98954.74
2018-11-28T06:36:23.400Z,98952.07
2018-11-28T06:36:54.563Z,98939.12
2018-11-28T06:37:25.746Z,98962.09
2018-11-28T06:37:56.933Z,98950.39
2018-11-28T06:38:28.594Z,98959.05
2018-11-28T06:39:36.941Z,98963.13
2018-11-28T06:40:08.156Z,98961.47
2018-11-28T06:40:39.917Z,98967.58
2018-11-28T06:41:11.154Z,98969.70
2018-11-28T06:41:43.064Z,98971.33
2018-11-28T06:42:14.328Z,98973.31
2018-11-28T06:42:47.738Z,98971.70
2018-11-28T06:43:21.157Z,98982.98
2018-11-28T06:43:52.415Z,98975.30
2018-11-28T06:44:23.747Z,98979.48
2018-11-28T06:44:57.595Z,98979.15
2018-11-28T06:45:30.130Z,98972.02
2018-11-28T06:46:01.943Z,98984.64
2018-11-28T06:46:33.303Z,98982.97
2018-11-28T06:47:05.602Z,98988.66
2018-11-28T06:47:37.938Z,98987.03
2018-11-28T06:48:09.875Z,98978.39
2018-11-28T06:49:20.038Z,98980.69
2018-11-28T06:49:51.222Z,98984.36
2018-11-28T06:50:58.866Z,98982.84
2018-11-28T06:51:34.232Z,98986.45
2018-11-28T07:03:56.649Z,99014.91
2018-11-28T07:04:27.805Z,99015.79
2018-11-28T07:04:58.978Z,99019.79
2018-11-28T07:05:31.082Z,99027.19
2018-11-28T07:06:02.403Z,99019.72
2018-11-28T07:06:33.694Z,99022.38
2018-11-28T07:07:04.939Z,99025.27
2018-11-28T07:07:38.350Z,99027.19
2018-11-28T07:16:23.948Z,99050.95
2018-11-28T07:16:55.186Z,99051.37
2018-11-28T07:17:26.526Z,99048.41
2018-11-28T07:17:57.807Z,99048.98
2018-11-28T07:18:29.095Z,99041.33
2018-11-28T07:19:00.589Z,99059.09
2018-11-28T07:19:32.105Z,99061.68
2018-11-28T07:20:03.515Z,99053.05
2018-11-28T07:20:34.726Z,99052.55
2018-11-28T07:21:05.983Z,99063.33
2018-11-28T07:21:37.354Z,99067.20
2018-11-28T07:22:09.101Z,99063.52
2018-11-28T07:22:40.326Z,99059.98
2018-11-28T07:23:12.341Z,99069.50
2018-11-28T07:23:43.631Z,99072.09
2018-11-28T07:24:14.942Z,99072.09
2018-11-28T07:24:46.204Z,99075.17
2018-11-28T07:25:17.499Z,99074.67
2018-11-28T07:25:48.945Z,99081.50
2018-11-28T07:26:20.132Z,99074.19
2018-11-28T07:26:51.445Z,99069.89
2018-11-28T07:27:23.348Z,99069.00
2018-11-28T07:27:54.647Z,99074.64
2018-11-28T07:28:25.914Z,99087.23
2018-11-28T07:28:58.291Z,99086.41
2018-11-28T07:29:29.567Z,99088.57
2018-11-28T07:30:00.859Z,99084.88
2018-11-28T07:30:37.529Z,99081.80
2018-11-28T07:31:05.313Z,99083.41
2018-11-28T07:31:38.031Z,99093.34
2018-11-28T07:32:10.376Z,99090.33
2018-11-28T07:32:41.926Z,99089.53
2018-11-28T07:33:53.033Z,99095.44
2018-11-28T07:35:50.789Z,99096.95
2018-11-28T07:36:22.553Z,99097.06
2018-11-28T08:01:53.674Z,99133.23
2018-11-28T08:03:03.910Z,99137.12